San Ygnacio, Texas
Current Conditions -  °F | °C
As of 7:15 AM on Thursday 18 Dec 2014 (Local Time) from KAPY Reporting Station
Haze Haze  
Wind Chill: 57°   Ceiling: 300
Heat Index: 57°   Visibility: 2.5mi
Dew Point: 57°   Wind: 6mph
Humidity: 100%   Direction: 320°NW
Pressure: 30.04"   Gusts: NA
Location:  27.04°N, 99.44°W
Report Text: KAPY 181315Z AUTO 32005KT 2 1/2SM BR OVC003 13/13 A3004 RMK AO2 T01400140
Loading
Personal Weather Stations






























Interactive Weather Map New forecast layout! Learn more

10-Day Weather Forecast

Advertisements
Track Severe Weather on mobile